Corstorphine, United Kingdom
Current Conditions -  °F | °C
As of 7:50 AM on Thursday 23 Oct 2014 (Local Time) from EGPH Reporting Station
Broken Clouds Broken Clouds  
Wind Chill: 12°   Ceiling: 1700
Heat Index: 12°   Visibility: 5mi
Dew Point: 10°   Wind: 17mph
Humidity: 88%   Direction: 220°SW
Pressure: 29.8"   Gusts: NA
Location:  55.95°N, 3.32°W
Report Text: EGPH 230650Z 22015KT 8000 BKN017 12/10 Q1009
Loading
Personal Weather Stations






























Interactive Weather Map
Tropical Storm Tracking
New forecast layout! Learn more

10-Day Weather Forecast

Advertisements
Track Severe Weather on mobile